Terminal Aerodrome Forecast
Issued by NWS Atlanta, GA

Home | Current Version | Previous Version | Text Only | Print | Product List | Glossary On
Versions: 1 2 3 4 5 6 7 8 9 10 11 12 13 14 15 16 17 18
000
FTUS42 KFFC 310100 AAA
TAFCSG
TAF AMD
KCSG 310139Z 3102/3124 VRB03KT P6SM -SHRA SCT050 BKN100
      TEMPO 3102/3103 VRB15G25KT 3SM TSRA BKN045CB
     FM310500 00000KT P6SM FEW050 SCT100
     FM311000 00000KT 5SM BR FEW010 SCT150
     FM311400 23003KT P6SM SCT020 SCT150
     FM311800 24006KT P6SM SCT045 SCT150=

USA.gov is the U.S. government's official web portal to all federal, state and local government web resources and services.